Time;durP1;ratioP1;P1;durP2;ratioP2;P2;SDS_P1;SDS_P2;PMS_P1;PMS_P2;Temp;Humidity;BMP_temperature;BMP_pressure;BME280_temperature;BME280_humidity;BME280_pressure;Samples;Min_cycle;Max_cycle;Signal;HPM_P1;HPM_P2
2020/12/10 00:02:18;;;;;;;;;;;;;;;21.60;27.69;97640.03;5020901;28;807;-75
2020/12/10 00:04:43;;;;;;;;;;;;;;;21.03;28.57;97641.78;5020597;28;1898;-75
2020/12/10 00:07:09;;;;;;;;;;;;;;;21.55;27.82;97637.75;5020714;28;649;-74
2020/12/10 00:09:34;;;;;;;;;;;;;;;21.76;28.05;97639.94;5020617;28;623;-75
2020/12/10 00:12:00;;;;;;;;;;;;;;;22.26;27.14;97624.06;5020364;28;1043;-74
2020/12/10 00:14:26;;;;;;;;;;;;;;;22.47;26.60;97630.22;5020171;28;916;-74
2020/12/10 00:16:51;;;;;;;;;;;;;;;22.45;26.84;97627.06;5020463;28;906;-75
2020/12/10 00:19:17;;;;;;;;;;;;;;;22.41;26.96;97634.91;5020439;28;710;-75
2020/12/10 00:21:42;;;;;;;;;;;;;;;22.06;26.94;97629.19;5020636;28;801;-75
2020/12/10 00:24:08;;;;;;;;;;;;;;;21.50;28.11;97632.66;5020410;28;1967;-75
2020/12/10 00:26:33;;;;;;;;;;;;;;;21.29;28.20;97629.25;5020161;28;922;-75
2020/12/10 00:28:59;;;;;;;;;;;;;;;21.85;28.16;97628.69;5020009;28;987;-75
2020/12/10 00:31:24;;;;;;;;;;;;;;;22.30;27.24;97630.41;5020442;28;972;-75
2020/12/10 00:33:50;;;;;;;;;;;;;;;22.56;26.70;97624.63;5020234;28;612;-75
2020/12/10 00:36:15;;;;;;;;;;;;;;;22.80;26.42;97617.25;5020343;28;702;-75
2020/12/10 00:38:41;;;;;;;;;;;;;;;22.41;26.77;97613.03;5020371;28;650;-75
2020/12/10 00:41:06;;;;;;;;;;;;;;;21.80;27.58;97615.09;5020147;28;862;-75
2020/12/10 00:43:32;;;;;;;;;;;;;;;21.41;27.94;97607.09;5002470;28;943;-75
2020/12/10 00:46:03;;;;;;;;;;;;;;;21.36;28.14;97605.63;5019322;28;1906;-75
2020/12/10 00:48:30;;;;;;;;;;;;;;;21.96;27.81;97594.31;5019147;28;1250;-75
2020/12/10 00:50:55;;;;;;;;;;;;;;;22.32;27.06;97591.06;5020347;28;679;-75
2020/12/10 00:53:21;;;;;;;;;;;;;;;22.32;27.08;97593.88;5003154;28;1318;-75
2020/12/10 00:55:46;;;;;;;;;;;;;;;22.59;26.70;97595.38;5002947;28;1156;-75
2020/12/10 00:58:12;;;;;;;;;;;;;;;22.15;27.21;97588.88;5019731;28;897;-75
2020/12/10 01:00:37;;;;;;;;;;;;;;;21.47;28.17;97582.66;5020215;28;871;-75
2020/12/10 01:03:05;;;;;;;;;;;;;;;21.64;27.96;97588.97;5020074;28;660;-75
2020/12/10 01:05:31;;;;;;;;;;;;;;;21.54;28.67;97591.69;5019994;28;1971;-75
2020/12/10 01:07:56;;;;;;;;;;;;;;;22.28;27.47;97581.13;5019894;28;682;-75
2020/12/10 01:10:22;;;;;;;;;;;;;;;22.53;26.71;97580.97;5019835;28;845;-75
2020/12/10 01:12:47;;;;;;;;;;;;;;;22.50;26.55;97575.47;5019673;28;820;-75
2020/12/10 01:15:13;;;;;;;;;;;;;;;22.40;27.14;97582.31;5019826;28;870;-75
2020/12/10 01:17:41;;;;;;;;;;;;;;;22.69;26.44;97576.34;5020017;28;691;-75
2020/12/10 01:20:07;;;;;;;;;;;;;;;21.84;27.46;97570.44;5019875;28;711;-74
2020/12/10 01:22:33;;;;;;;;;;;;;;;21.75;27.81;97567.53;5019842;28;630;-75
2020/12/10 01:24:58;;;;;;;;;;;;;;;21.64;27.64;97567.09;5019394;28;1967;-75
2020/12/10 01:27:24;;;;;;;;;;;;;;;21.80;28.45;97569.00;5019526;28;938;-75
2020/12/10 01:29:49;;;;;;;;;;;;;;;22.28;27.14;97556.41;5019733;28;1066;-75
2020/12/10 01:32:15;;;;;;;;;;;;;;;22.51;26.88;97560.03;5019704;28;671;-74
2020/12/10 01:34:40;;;;;;;;;;;;;;;22.51;27.07;97549.47;5019731;28;635;-75
2020/12/10 01:37:06;;;;;;;;;;;;;;;22.55;26.90;97555.81;5019845;28;658;-75
2020/12/10 01:39:31;;;;;;;;;;;;;;;21.86;27.62;97544.50;5019320;28;969;-75
2020/12/10 01:41:59;;;;;;;;;;;;;;;21.68;27.79;97533.78;5019314;28;812;-75
2020/12/10 01:44:24;;;;;;;;;;;;;;;21.74;28.06;97548.16;5002612;28;1995;-75
2020/12/10 01:46:50;;;;;;;;;;;;;;;21.92;27.88;97539.06;5019800;28;658;-75
2020/12/10 01:49:15;;;;;;;;;;;;;;;22.49;27.29;97528.53;5020137;28;683;-75
2020/12/10 01:51:41;;;;;;;;;;;;;;;22.66;26.85;97521.38;5019718;28;571;-75
2020/12/10 01:54:06;;;;;;;;;;;;;;;22.65;27.10;97522.63;5019183;28;966;-74
2020/12/10 01:56:32;;;;;;;;;;;;;;;21.67;28.15;97515.22;5020224;28;855;-75
2020/12/10 01:58:58;;;;;;;;;;;;;;;21.71;27.86;97515.91;5006246;28;854;-75
2020/12/10 02:01:23;;;;;;;;;;;;;;;21.26;28.80;97502.81;5006260;28;654;-75
2020/12/10 02:03:49;;;;;;;;;;;;;;;21.79;28.71;97497.41;5022940;28;1959;-75
2020/12/10 02:06:14;;;;;;;;;;;;;;;22.05;28.27;97500.13;5023191;28;703;-75
2020/12/10 02:08:43;;;;;;;;;;;;;;;22.63;27.17;97502.44;5022573;28;946;-75
2020/12/10 02:11:09;;;;;;;;;;;;;;;22.46;27.40;97495.41;5022973;28;870;-75
2020/12/10 02:13:34;;;;;;;;;;;;;;;22.50;27.14;97496.06;5022690;28;907;-75
2020/12/10 02:16:00;;;;;;;;;;;;;;;22.00;27.99;97492.22;5005761;28;834;-75
2020/12/10 02:18:27;;;;;;;;;;;;;;;21.87;27.57;97488.66;5022648;28;677;-75
2020/12/10 02:20:52;;;;;;;;;;;;;;;21.36;28.63;97483.16;5022896;28;623;-75
2020/12/10 02:23:18;;;;;;;;;;;;;;;21.76;28.94;97478.50;5022526;28;1076;-75
2020/12/10 02:25:43;;;;;;;;;;;;;;;22.28;28.06;97473.44;5022379;28;1965;-75
2020/12/10 02:28:13;;;;;;;;;;;;;;;22.30;27.68;97471.69;5022350;28;1191;-75
2020/12/10 02:30:39;;;;;;;;;;;;;;;22.42;27.67;97474.91;5022669;28;643;-76
2020/12/10 02:33:10;;;;;;;;;;;;;;;22.34;27.36;97465.91;5005118;28;946;-75
2020/12/10 02:35:36;;;;;;;;;;;;;;;22.06;27.82;97462.03;5022585;28;714;-75
2020/12/10 02:38:03;;;;;;;;;;;;;;;21.53;28.48;97461.94;5022236;28;904;-75
2020/12/10 02:40:29;;;;;;;;;;;;;;;21.70;29.07;97462.53;5022344;28;815;-74
2020/12/10 02:42:58;;;;;;;;;;;;;;;22.01;28.42;97460.59;5022235;28;966;-75
2020/12/10 02:45:23;;;;;;;;;;;;;;;22.19;27.99;97459.97;5022198;28;1898;-75
2020/12/10 02:47:49;;;;;;;;;;;;;;;22.57;27.15;97461.75;5022258;28;655;-75
2020/12/10 02:50:14;;;;;;;;;;;;;;;22.65;27.17;97454.56;5022209;28;670;-75
2020/12/10 02:52:40;;;;;;;;;;;;;;;21.99;27.88;97451.78;5021770;28;974;-74
2020/12/10 02:55:05;;;;;;;;;;;;;;;21.98;27.75;97455.06;5021821;28;908;-75
2020/12/10 02:57:31;;;;;;;;;;;;;;;21.67;28.22;97450.09;5022117;28;970;-75
2020/12/10 02:59:56;;;;;;;;;;;;;;;21.04;29.09;97451.81;5021979;28;734;-75
2020/12/10 03:02:22;;;;;;;;;;;;;;;21.97;28.90;97442.16;5022055;28;722;-75
2020/12/10 03:04:48;;;;;;;;;;;;;;;22.40;27.52;97430.03;5022035;28;1894;-74
2020/12/10 03:07:14;;;;;;;;;;;;;;;22.40;27.51;97430.03;5021847;28;1021;-75
2020/12/10 03:09:39;;;;;;;;;;;;;;;22.53;27.49;97427.09;5020747;28;815;-75
2020/12/10 03:12:05;;;;;;;;;;;;;;;22.66;27.29;97433.47;5021717;28;941;-75
2020/12/10 03:14:30;;;;;;;;;;;;;;;22.42;27.34;97426.72;5021679;28;645;-75
2020/12/10 03:16:56;;;;;;;;;;;;;;;21.38;28.83;97426.88;5021939;28;650;-75
2020/12/10 03:19:21;;;;;;;;;;;;;;;21.47;28.69;97427.75;5021546;28;632;-75
2020/12/10 03:21:47;;;;;;;;;;;;;;;21.55;28.47;97422.63;5021604;28;870;-75
2020/12/10 03:24:12;;;;;;;;;;;;;;;21.68;28.95;97429.03;5021066;28;1981;-75
2020/12/10 03:26:38;;;;;;;;;;;;;;;22.16;27.97;97432.56;5021506;28;1005;-75
2020/12/10 03:29:07;;;;;;;;;;;;;;;22.46;27.19;97421.72;5021327;28;1014;-75
2020/12/10 03:31:33;;;;;;;;;;;;;;;22.60;27.17;97421.16;5004986;28;663;-75
2020/12/10 03:33:59;;;;;;;;;;;;;;;22.57;27.38;97427.75;5021238;28;579;-75
2020/12/10 03:36:24;;;;;;;;;;;;;;;21.70;28.12;97428.56;5021083;28;931;-75
2020/12/10 03:38:50;;;;;;;;;;;;;;;21.61;28.19;97437.78;5020836;28;896;-74
2020/12/10 03:41:15;;;;;;;;;;;;;;;21.46;28.30;97437.50;5021237;28;810;-75
2020/12/10 03:43:40;;;;;;;;;;;;;;;21.66;28.93;97451.38;5021139;28;726;-75
2020/12/10 03:46:06;;;;;;;;;;;;;;;22.09;28.16;97444.13;5021185;28;1983;-74
2020/12/10 03:48:31;;;;;;;;;;;;;;;22.40;27.21;97440.56;5021011;28;644;-75
2020/12/10 03:50:57;;;;;;;;;;;;;;;22.70;26.86;97436.94;5020953;28;1013;-75
2020/12/10 03:53:22;;;;;;;;;;;;;;;22.39;27.01;97444.66;5020627;28;814;-75
2020/12/10 03:55:48;;;;;;;;;;;;;;;21.80;27.90;97439.50;5021178;28;1080;-75
2020/12/10 03:58:13;;;;;;;;;;;;;;;21.53;28.35;97454.22;5021002;28;783;-75
2020/12/10 04:00:38;;;;;;;;;;;;;;;21.52;28.04;97449.03;5020922;28;706;-75
2020/12/10 04:03:04;;;;;;;;;;;;;;;21.73;28.86;97453.94;5021114;28;673;-75
2020/12/10 04:05:29;;;;;;;;;;;;;;;22.06;27.89;97450.72;5020628;28;1903;-75
2020/12/10 04:07:55;;;;;;;;;;;;;;;22.29;27.59;97438.94;5020559;28;948;-75
2020/12/10 04:10:20;;;;;;;;;;;;;;;22.48;27.24;97444.69;5020809;28;897;-75
2020/12/10 04:12:46;;;;;;;;;;;;;;;22.68;27.05;97450.78;5020978;28;647;-75
2020/12/10 04:15:11;;;;;;;;;;;;;;;22.09;27.40;97438.47;5020748;28;711;-75
2020/12/10 04:17:37;;;;;;;;;;;;;;;21.66;28.11;97440.03;5020811;28;624;-75
2020/12/10 04:20:02;;;;;;;;;;;;;;;21.31;28.63;97451.34;5020031;28;941;-76
2020/12/10 04:22:28;;;;;;;;;;;;;;;21.85;28.43;97440.97;5003606;28;925;-75
2020/12/10 04:24:53;;;;;;;;;;;;;;;22.37;27.21;97433.78;5020478;28;1972;-75
2020/12/10 04:27:19;;;;;;;;;;;;;;;22.67;27.07;97431.41;5020642;28;611;-75
2020/12/10 04:29:44;;;;;;;;;;;;;;;22.82;26.49;97429.59;5020380;28;987;-75
2020/12/10 04:32:10;;;;;;;;;;;;;;;22.64;26.79;97438.81;5020698;28;734;-75
2020/12/10 04:34:35;;;;;;;;;;;;;;;21.92;27.65;97434.25;5020034;28;930;-75
2020/12/10 04:37:01;;;;;;;;;;;;;;;21.36;28.21;97438.66;5020156;28;951;-76
2020/12/10 04:39:26;;;;;;;;;;;;;;;21.64;27.93;97433.25;5020327;28;922;-75
2020/12/10 04:41:52;;;;;;;;;;;;;;;21.66;28.81;97423.06;5020541;28;707;-75
2020/12/10 04:44:17;;;;;;;;;;;;;;;21.96;28.06;97429.22;5020214;28;1977;-75
2020/12/10 04:46:42;;;;;;;;;;;;;;;22.37;27.22;97425.28;5020365;28;676;-75
2020/12/10 04:49:08;;;;;;;;;;;;;;;22.53;27.05;97427.09;5001697;28;1582;-76
2020/12/10 04:51:34;;;;;;;;;;;;;;;22.36;26.98;97433.00;5001665;28;1605;-76
2020/12/10 04:54:02;;;;;;;;;;;;;;;21.88;27.75;97433.59;4984008;28;1549;-76
2020/12/10 04:56:28;;;;;;;;;;;;;;;21.44;28.53;97439.97;5001418;28;716;-76
2020/12/10 04:58:53;;;;;;;;;;;;;;;21.63;28.17;97438.13;5000999;28;659;-76
2020/12/10 05:01:20;;;;;;;;;;;;;;;21.76;28.64;97438.88;5001037;28;1052;-77
2020/12/10 05:03:46;;;;;;;;;;;;;;;22.35;27.59;97428.59;5000508;28;953;-77
2020/12/10 05:06:15;;;;;;;;;;;;;;;22.58;26.89;97441.44;4984938;28;1983;-76
2020/12/10 05:08:41;;;;;;;;;;;;;;;22.79;26.77;97431.28;5000625;28;659;-76
2020/12/10 05:11:06;;;;;;;;;;;;;;;22.34;27.27;97431.88;4985039;28;653;-76
2020/12/10 05:13:32;;;;;;;;;;;;;;;21.39;28.42;97437.72;5000708;28;635;-77
2020/12/10 05:15:57;;;;;;;;;;;;;;;21.38;28.48;97435.38;5000957;28;1004;-77
2020/12/10 05:18:23;;;;;;;;;;;;;;;21.39;28.74;97437.72;5000381;28;933;-79
2020/12/10 05:20:52;;;;;;;;;;;;;;;21.88;28.30;97445.72;5002555;28;1404;-76
2020/12/10 05:23:28;;;;;;;;;;;;;;;22.18;27.61;97441.41;4983650;28;1617;-77
2020/12/10 05:25:54;;;;;;;;;;;;;;;22.50;27.32;97433.69;4984329;28;1910;-77
2020/12/10 05:28:19;;;;;;;;;;;;;;;22.57;27.19;97436.25;5000512;28;1017;-76
2020/12/10 05:30:46;;;;;;;;;;;;;;;22.20;27.17;97438.88;4984138;28;958;-76
2020/12/10 05:33:16;;;;;;;;;;;;;;;21.76;28.04;97436.03;4986766;28;856;-76
2020/12/10 05:35:41;;;;;;;;;;;;;;;21.44;28.42;97439.97;5005080;28;675;-77
2020/12/10 05:38:08;;;;;;;;;;;;;;;21.56;28.21;97436.34;4987205;28;885;-76
2020/12/10 05:40:33;;;;;;;;;;;;;;;21.77;28.67;97443.28;5004698;28;649;-76
2020/12/10 05:42:59;;;;;;;;;;;;;;;22.26;27.72;97437.03;5004152;28;651;-76
2020/12/10 05:45:24;;;;;;;;;;;;;;;22.44;27.50;97436.34;4987087;28;1906;-76
2020/12/10 05:47:54;;;;;;;;;;;;;;;22.45;27.30;97442.81;5004284;28;910;-76
2020/12/10 05:50:26;;;;;;;;;;;;;;;21.85;27.97;97447.41;4998413;28;1562;-76
2020/12/10 05:53:04;;;;;;;;;;;;;;;21.82;28.03;97448.34;5019139;28;1497;-76
2020/12/10 05:55:29;;;;;;;;;;;;;;;20.85;29.83;97444.38;5011556;28;1529;-76
2020/12/10 05:57:55;;;;;;;;;;;;;;;21.92;28.50;97439.94;5024092;28;639;-76
2020/12/10 06:00:21;;;;;;;;;;;;;;;22.42;27.61;97438.84;4990192;28;852;-77
2020/12/10 06:02:46;;;;;;;;;;;;;;;22.77;27.16;97442.31;5023612;28;918;-77
2020/12/10 06:05:13;;;;;;;;;;;;;;;22.67;27.26;97449.22;5006625;28;1963;-77
2020/12/10 06:07:38;;;;;;;;;;;;;;;22.23;27.33;97454.97;5006974;28;695;-77
2020/12/10 06:10:04;;;;;;;;;;;;;;;21.76;27.80;97449.38;5021839;28;1622;-77
2020/12/10 06:12:29;;;;;;;;;;;;;;;21.51;28.28;97438.97;4992893;28;1463;-76
2020/12/10 06:14:55;;;;;;;;;;;;;;;21.36;28.88;97444.31;5003577;28;870;-77
2020/12/10 06:17:21;;;;;;;;;;;;;;;22.00;28.59;97441.22;4987027;28;859;-76
2020/12/10 06:19:46;;;;;;;;;;;;;;;22.46;27.39;97439.50;5003568;28;870;-76
2020/12/10 06:22:24;;;;;;;;;;;;;;;22.42;27.37;97446.56;5015563;28;1510;-76
2020/12/10 06:24:50;;;;;;;;;;;;;;;22.58;27.37;97446.31;5028715;28;1906;-75
2020/12/10 06:27:25;;;;;;;;;;;;;;;22.67;26.98;97440.69;5034026;28;1579;-76
2020/12/10 06:29:50;;;;;;;;;;;;;;;22.28;27.55;97445.88;5014238;28;1592;-76
2020/12/10 06:32:17;;;;;;;;;;;;;;;21.32;28.82;97450.09;5006019;28;1479;-76
2020/12/10 06:34:42;;;;;;;;;;;;;;;21.56;28.62;97453.31;4988109;28;1581;-77
2020/12/10 06:37:23;;;;;;;;;;;;;;;21.74;28.14;97457.56;5004188;28;640;-76
2020/12/10 06:39:53;;;;;;;;;;;;;;;21.28;29.12;97449.38;5004411;28;723;-76
2020/12/10 06:42:18;;;;;;;;;;;;;;;21.70;28.69;97446.34;5006359;28;642;-76
2020/12/10 06:44:44;;;;;;;;;;;;;;;22.06;28.15;97456.38;5021653;28;1973;-77
2020/12/10 06:47:09;;;;;;;;;;;;;;;22.29;27.68;97453.13;4986354;28;855;-76
2020/12/10 06:49:36;;;;;;;;;;;;;;;22.59;27.45;97459.28;5002982;28;958;-76
2020/12/10 06:52:11;;;;;;;;;;;;;;;22.63;27.17;97454.22;5003641;28;604;-76
2020/12/10 06:54:56;;;;;;;;;;;;;;;21.99;28.04;97451.00;5003652;28;681;-75
2020/12/10 06:57:22;;;;;;;;;;;;;;;21.44;28.80;97454.13;4996039;28;970;-76
2020/12/10 06:59:47;;;;;;;;;;;;;;;21.53;28.97;97453.44;5002596;28;1048;-76
2020/12/10 07:02:14;;;;;;;;;;;;;;;21.28;29.61;97455.03;5003122;28;959;-75
2020/12/10 07:04:50;;;;;;;;;;;;;;;21.93;28.61;97452.84;4986169;28;1965;-77
2020/12/10 07:07:16;;;;;;;;;;;;;;;22.19;27.84;97464.84;5003152;28;674;-76
2020/12/10 07:09:47;;;;;;;;;;;;;;;22.42;27.42;97455.84;5002466;28;859;-77
2020/12/10 07:12:26;;;;;;;;;;;;;;;21.97;28.01;97454.28;5009338;28;651;-77
2020/12/10 07:14:51;;;;;;;;;;;;;;;21.32;28.99;97455.75;5021305;28;1498;-77
2020/12/10 07:17:17;;;;;;;;;;;;;;;21.44;28.47;97462.63;5020286;28;1585;-76
2020/12/10 07:19:43;;;;;;;;;;;;;;;21.48;29.23;97466.13;5002759;28;1522;-75
2020/12/10 07:22:08;;;;;;;;;;;;;;;22.13;28.27;97466.72;5003112;28;599;-77
2020/12/10 07:24:34;;;;;;;;;;;;;;;22.34;27.64;97475.19;4985567;28;1902;-77
2020/12/10 07:26:59;;;;;;;;;;;;;;;22.62;27.34;97475.34;5002922;28;705;-76
2020/12/10 07:29:25;;;;;;;;;;;;;;;22.58;27.02;97469.78;5006543;28;1538;-76
2020/12/10 07:31:50;;;;;;;;;;;;;;;21.85;28.09;97470.06;5002485;28;895;-78
2020/12/10 07:34:16;;;;;;;;;;;;;;;21.78;28.28;97480.88;4985770;28;871;-78
2020/12/10 07:36:48;;;;;;;;;;;;;;;20.32;31.21;97474.28;5002668;28;639;-73
2020/12/10 07:39:13;;;;;;;;;;;;;;;22.06;29.92;97476.22;5002909;28;1588;-78
2020/12/10 07:41:39;;;;;;;;;;;;;;;21.33;32.20;97473.53;5001657;28;643;-75
2020/12/10 07:44:04;;;;;;;;;;;;;;;22.35;30.99;97479.59;5001475;28;1973;-78
2020/12/10 07:46:36;;;;;;;;;;;;;;;22.19;30.78;97482.66;5021088;28;999;-76
2020/12/10 07:49:02;;;;;;;;;;;;;;;21.72;31.39;97477.06;5019458;28;1470;-76
2020/12/10 07:51:27;;;;;;;;;;;;;;;21.76;31.24;97475.69;5013867;28;1526;-76
2020/12/10 07:53:59;;;;;;;;;;;;;;;21.94;30.71;97475.03;5002146;28;1644;-75
2020/12/10 07:56:25;;;;;;;;;;;;;;;21.72;30.61;97475.00;4986997;28;1573;-76
2020/12/10 07:59:08;;;;;;;;;;;;;;;21.89;31.13;97480.50;4984308;28;965;-76
2020/12/10 08:01:39;;;;;;;;;;;;;;;22.43;30.10;97479.31;5001075;28;818;-75
2020/12/10 08:04:23;;;;;;;;;;;;;;;22.78;29.11;97466.59;5001217;28;1906;-75
2020/12/10 08:06:48;;;;;;;;;;;;;;;22.83;28.69;97463.16;5009904;28;1506;-76
2020/12/10 08:09:14;;;;;;;;;;;;;;;21.88;29.85;97473.25;5020850;28;599;-76
2020/12/10 08:11:55;;;;;;;;;;;;;;;21.60;30.41;97464.50;5003774;28;659;-76
2020/12/10 08:14:24;;;;;;;;;;;;;;;21.22;30.98;97473.06;5003944;28;849;-75
2020/12/10 08:16:50;;;;;;;;;;;;;;;22.04;30.24;97464.56;5013838;28;1534;-75
2020/12/10 08:19:30;;;;;;;;;;;;;;;22.41;29.12;97470.50;4983769;28;874;-76
2020/12/10 08:21:56;;;;;;;;;;;;;;;22.55;28.58;97456.56;4985053;28;659;-75
2020/12/10 08:24:37;;;;;;;;;;;;;;;22.55;28.78;97458.63;5001025;28;1915;-75
2020/12/10 08:27:02;;;;;;;;;;;;;;;22.42;28.75;97460.72;5002068;28;1546;-76
2020/12/10 08:29:28;;;;;;;;;;;;;;;21.63;29.67;97463.59;4990281;28;1515;-75
2020/12/10 08:32:04;;;;;;;;;;;;;;;21.47;29.84;97455.28;5020438;28;925;-75
2020/12/10 08:34:29;;;;;;;;;;;;;;;21.59;29.50;97451.59;5015212;28;1568;-74
2020/12/10 08:37:01;;;;;;;;;;;;;;;21.69;29.29;97461.75;5017727;28;1620;-76
2020/12/10 08:39:30;;;;;;;;;;;;;;;22.07;29.47;97452.28;4989151;28;1569;-76
2020/12/10 08:41:56;;;;;;;;;;;;;;;22.28;28.89;97451.53;5020332;28;639;-75
2020/12/10 08:44:21;;;;;;;;;;;;;;;22.75;28.33;97444.84;5020022;28;1898;-76
2020/12/10 08:46:47;;;;;;;;;;;;;;;22.79;27.96;97439.81;5020455;28;950;-75
2020/12/10 08:49:15;;;;;;;;;;;;;;;21.75;29.35;97431.59;5003073;28;1126;-75
2020/12/10 08:51:42;;;;;;;;;;;;;;;21.64;29.41;97431.19;5014291;28;1576;-75
2020/12/10 08:54:08;;;;;;;;;;;;;;;20.96;30.01;97432.72;5005254;28;690;-76
2020/12/10 08:56:38;;;;;;;;;;;;;;;21.51;30.23;97428.44;5020345;28;619;-76
2020/12/10 08:59:03;;;;;;;;;;;;;;;22.40;28.65;97429.25;5019872;28;1032;-75
2020/12/10 09:01:29;;;;;;;;;;;;;;;22.49;28.32;97426.47;5002669;28;919;-76
2020/12/10 09:03:54;;;;;;;;;;;;;;;22.54;28.12;97429.47;5020067;28;893;-74
2020/12/10 09:06:20;;;;;;;;;;;;;;;22.42;27.77;97423.88;5020048;28;1989;-76
2020/12/10 09:08:45;;;;;;;;;;;;;;;21.70;28.92;97439.91;5006516;28;1171;-74
2020/12/10 09:11:11;;;;;;;;;;;;;;;21.58;28.96;97422.50;5023741;28;1194;-76
2020/12/10 09:13:36;;;;;;;;;;;;;;;21.65;29.10;97432.78;5023166;28;1186;-76
2020/12/10 09:16:02;;;;;;;;;;;;;;;21.82;29.71;97442.69;5023484;28;1055;-75
2020/12/10 09:18:28;;;;;;;;;;;;;;;22.21;28.81;97445.34;5023257;28;1139;-76
2020/12/10 09:20:55;;;;;;;;;;;;;;;22.49;28.33;97438.59;5021403;28;1656;-75
2020/12/10 09:23:20;;;;;;;;;;;;;;;22.58;28.04;97447.13;5026577;28;1592;-75
2020/12/10 09:25:46;;;;;;;;;;;;;;;22.21;28.24;97446.13;4995589;28;1907;-74
2020/12/10 09:28:11;;;;;;;;;;;;;;;21.99;28.39;97439.66;5017259;28;1526;-76
2020/12/10 09:30:37;;;;;;;;;;;;;;;21.57;28.81;97440.75;5003866;28;1549;-75
2020/12/10 09:33:03;;;;;;;;;;;;;;;21.48;29.93;97431.38;4986563;28;1120;-74
2020/12/10 09:35:28;;;;;;;;;;;;;;;22.42;28.23;97438.84;5003256;28;1286;-73
2020/12/10 09:38:01;;;;;;;;;;;;;;;22.71;27.77;97438.53;5003337;28;1293;-75
2020/12/10 09:40:27;;;;;;;;;;;;;;;22.73;27.53;97441.66;5003441;28;1358;-75
2020/12/10 09:42:52;;;;;;;;;;;;;;;22.81;27.50;97434.47;5002837;28;1247;-75
2020/12/10 09:45:18;;;;;;;;;;;;;;;22.43;27.82;97416.94;5006527;28;1977;-76
2020/12/10 09:47:46;;;;;;;;;;;;;;;21.90;28.16;97431.09;5006826;28;967;-75
2020/12/10 09:50:19;;;;;;;;;;;;;;;21.46;29.26;97439.53;5023404;28;699;-76
2020/12/10 09:52:54;;;;;;;;;;;;;;;21.22;29.26;97442.72;4996715;28;1519;-76
2020/12/10 09:57:51;;;;;;;;;;;;;;;22.19;28.42;97440.13;5003420;28;1428;-76
2020/12/10 10:00:16;;;;;;;;;;;;;;;22.44;28.14;97421.38;5003323;28;889;-76
2020/12/10 10:02:42;;;;;;;;;;;;;;;22.53;27.93;97418.56;5004046;28;867;-76
2020/12/10 10:05:07;;;;;;;;;;;;;;;22.32;27.88;97417.38;5003923;28;1966;-76
2020/12/10 10:07:33;;;;;;;;;;;;;;;21.52;28.95;97413.03;5001801;28;1936;-76
2020/12/10 10:09:58;;;;;;;;;;;;;;;21.36;29.13;97412.41;5003850;28;703;-76
2020/12/10 10:12:24;;;;;;;;;;;;;;;21.36;29.76;97415.22;5003375;28;1069;-75
2020/12/10 10:14:49;;;;;;;;;;;;;;;22.10;28.70;97400.38;5002920;28;847;-76
2020/12/10 10:17:15;;;;;;;;;;;;;;;22.52;27.86;97403.63;5001447;28;1468;-76
2020/12/10 10:19:40;;;;;;;;;;;;;;;22.60;27.69;97407.75;4994597;28;1535;-76
2020/12/10 10:22:06;;;;;;;;;;;;;;;21.92;28.35;97400.28;4967058;28;749;-76
2020/12/10 10:24:32;;;;;;;;;;;;;;;21.50;28.83;97400.56;4984631;28;1973;-76
2020/12/10 10:26:58;;;;;;;;;;;;;;;21.56;28.83;97390.25;4984275;28;1468;-76
2020/12/10 10:29:23;;;;;;;;;;;;;;;21.45;29.05;97395.47;4978380;28;1112;-76
2020/12/10 10:31:49;;;;;;;;;;;;;;;22.17;28.44;97394.47;4987428;28;1550;-75
2020/12/10 10:34:15;;;;;;;;;;;;;;;22.59;27.58;97388.38;4986485;28;671;-76
2020/12/10 10:36:40;;;;;;;;;;;;;;;22.62;27.47;97384.59;4987434;28;1514;-76
2020/12/10 10:39:06;;;;;;;;;;;;;;;22.65;27.40;97383.69;5022401;28;1523;-75
2020/12/10 10:41:31;;;;;;;;;;;;;;;22.04;28.22;97373.91;5023193;28;835;-76
2020/12/10 10:43:57;;;;;;;;;;;;;;;21.57;28.96;97374.84;5023942;28;901;-80
2020/12/10 10:46:22;;;;;;;;;;;;;;;21.61;28.54;97375.50;5025753;28;1911;-80
2020/12/10 10:48:48;;;;;;;;;;;;;;;21.73;28.40;97366.16;4992474;28;1594;-81
2020/12/10 10:51:14;;;;;;;;;;;;;;;21.52;29.71;97369.78;4989621;28;951;-82
2020/12/10 10:53:39;;;;;;;;;;;;;;;22.22;28.29;97368.34;4988317;28;751;-82
2020/12/10 10:56:05;;;;;;;;;;;;;;;22.39;28.16;97368.94;4989533;28;1133;-80
2020/12/10 10:58:30;;;;;;;;;;;;;;;22.51;27.90;97372.91;4970439;28;1537;-79
2020/12/10 11:00:56;;;;;;;;;;;;;;;22.62;27.67;97367.59;5009862;28;1483;-80
2020/12/10 11:03:21;;;;;;;;;;;;;;;21.86;28.62;97366.06;5023593;28;661;-80
2020/12/10 11:05:47;;;;;;;;;;;;;;;21.10;29.93;97361.53;5007388;28;1906;-79
2020/12/10 11:08:12;;;;;;;;;;;;;;;21.03;29.90;97359.72;5005885;28;619;-79
2020/12/10 11:10:38;;;;;;;;;;;;;;;21.94;28.94;97352.44;5021860;28;1581;-80
2020/12/10 11:13:04;;;;;;;;;;;;;;;22.38;28.32;97358.81;5023069;28;896;-80
2020/12/10 11:15:30;;;;;;;;;;;;;;;22.43;28.11;97346.09;4974247;28;1456;-79
2020/12/10 11:17:55;;;;;;;;;;;;;;;22.65;27.85;97346.81;5006196;28;683;-79
2020/12/10 11:20:21;;;;;;;;;;;;;;;21.60;29.08;97359.75;4997996;28;1696;-79
2020/12/10 11:22:46;;;;;;;;;;;;;;;21.71;28.80;97363.00;5024519;28;1176;-78
2020/12/10 11:25:12;;;;;;;;;;;;;;;21.47;29.13;97359.03;5006789;28;1898;-77
2020/12/10 11:27:37;;;;;;;;;;;;;;;21.51;29.07;97366.16;5005544;28;868;-78
2020/12/10 11:30:03;;;;;;;;;;;;;;;21.92;29.08;97360.63;5018595;28;1499;-79
2020/12/10 11:32:29;;;;;;;;;;;;;;;22.29;28.47;97361.63;5005555;28;954;-78
2020/12/10 11:34:54;;;;;;;;;;;;;;;22.47;28.05;97363.75;5022333;28;634;-79
2020/12/10 11:37:20;;;;;;;;;;;;;;;22.63;27.77;97360.66;5006015;28;634;-79
2020/12/10 11:39:45;;;;;;;;;;;;;;;21.65;28.61;97353.50;5002926;28;1494;-79
2020/12/10 11:42:11;;;;;;;;;;;;;;;21.44;29.18;97346.59;5003824;28;1605;-79
2020/12/10 11:44:40;;;;;;;;;;;;;;;21.29;29.57;97349.09;5002444;28;1902;-80
2020/12/10 11:47:05;;;;;;;;;;;;;;;21.34;29.29;97350.59;5002892;28;632;-78
2020/12/10 11:49:31;;;;;;;;;;;;;;;21.84;29.38;97345.94;4991770;28;1502;-79
2020/12/10 11:51:56;;;;;;;;;;;;;;;22.29;28.23;97341.78;5005238;28;678;-79
2020/12/10 11:54:22;;;;;;;;;;;;;;;22.48;27.93;97340.59;5010552;28;1491;-79
2020/12/10 11:56:53;;;;;;;;;;;;;;;22.57;28.05;97337.00;5004807;28;1475;-79
2020/12/10 11:59:19;;;;;;;;;;;;;;;22.24;27.84;97333.91;5002174;28;969;-78
2020/12/10 12:01:44;;;;;;;;;;;;;;;21.27;29.78;97323.31;5002857;28;619;-79
2020/12/10 12:04:09;;;;;;;;;;;;;;;21.57;29.07;97318.22;5002036;28;687;-79
2020/12/10 12:06:35;;;;;;;;;;;;;;;21.19;29.91;97316.34;5003204;28;1911;-79
2020/12/10 12:09:01;;;;;;;;;;;;;;;21.73;29.16;97306.69;5019085;28;1602;-79
2020/12/10 12:11:27;;;;;;;;;;;;;;;22.08;28.94;97312.22;5021542;28;1652;-78
2020/12/10 12:13:52;;;;;;;;;;;;;;;22.42;28.23;97313.34;5021806;28;803;-79
2020/12/10 12:16:18;;;;;;;;;;;;;;;22.62;27.66;97310.88;5005229;28;781;-78
2020/12/10 12:18:43;;;;;;;;;;;;;;;22.80;27.42;97296.75;4991754;28;1578;-79
2020/12/10 12:21:09;;;;;;;;;;;;;;;22.02;28.52;97297.06;5002381;28;642;-79
2020/12/10 12:23:34;;;;;;;;;;;;;;;21.37;29.54;97289.47;4984601;28;945;-78
2020/12/10 12:26:01;;;;;;;;;;;;;;;21.35;29.43;97283.47;4985488;28;1971;-79
2020/12/10 12:28:27;;;;;;;;;;;;;;;21.67;29.30;97294.38;5007533;28;1479;-78
2020/12/10 12:30:53;;;;;;;;;;;;;;;22.16;28.73;97282.38;5002541;28;1616;-79
2020/12/10 12:33:18;;;;;;;;;;;;;;;22.36;28.31;97288.44;4984677;28;1547;-79
2020/12/10 12:35:46;;;;;;;;;;;;;;;22.57;27.76;97292.44;4981206;28;1582;-79
2020/12/10 12:38:11;;;;;;;;;;;;;;;22.70;27.88;97286.66;5004084;28;971;-79
2020/12/10 12:40:37;;;;;;;;;;;;;;;22.04;28.25;97284.03;5021434;28;919;-79
2020/12/10 12:43:04;;;;;;;;;;;;;;;21.52;29.16;97288.47;5021365;28;858;-78
2020/12/10 12:45:29;;;;;;;;;;;;;;;21.70;28.67;97287.78;5019402;28;1902;-79
2020/12/10 12:47:56;;;;;;;;;;;;;;;21.74;29.63;97288.44;5020335;28;1514;-78
2020/12/10 12:50:22;;;;;;;;;;;;;;;22.58;28.09;97293.22;5004310;28;755;-78
2020/12/10 12:52:47;;;;;;;;;;;;;;;22.86;27.42;97296.91;5004095;28;957;-79
2020/12/10 12:55:13;;;;;;;;;;;;;;;22.52;27.73;97300.75;5019566;28;1490;-79
2020/12/10 12:57:38;;;;;;;;;;;;;;;21.98;28.38;97302.13;5020051;28;1584;-78
2020/12/10 13:00:04;;;;;;;;;;;;;;;21.79;28.45;97295.56;5020904;28;755;-79
2020/12/10 13:02:33;;;;;;;;;;;;;;;21.31;29.30;97290.06;5004697;28;650;-79